Terminal Aerodrome Forecast
Issued by NWS Bismarck, ND

Home | Current Version | Previous Version | Text Only | Print | Product List | Glossary On
Versions: 1 2 3 4 5 6 7 8 9 10 11 12 13 14 15
000
FTUS43 KBIS 172300
TAFBIS
TAF
KBIS 172333Z 1800/1824 16012KT P6SM OVC060
     FM180200 12008KT P6SM BKN070
     FM181500 12018G26KT P6SM BKN110
     FM181900 14022G32KT P6SM BKN110=

USA.gov is the U.S. government's official web portal to all federal, state and local government web resources and services.